»·PEaware :: N87JA KCMA-KSNA

N87JA :: KCMA-KSNA

FLIGHT INFORMATION

Flight Status: Arrived
Operator: Privately registered:
United States
More flights under this callsign
Pilot: Nathan B. (26256)
Aircraft: CESSNA 172 SKYHAWK
(C172)
More flights by this aircraft type
Origin: KCMA Camarillo
United States
Destination: KSNA John Wayne-Orange Co
United States
More flights between these airports :: More routes between these airports
Route: +
File this flight plan on PilotEdge
Remarks:
Altitude:
(Current/Filed)
0ft
Speed:
(Current/Filed)
0kts
Departed: 01-Dec-19 09:45 PM
Arrived: 01-Dec-19 10:32 PM
Distance/Time
Traveled:
69nm/0:46
Distance/Time
To Go:
Arrived

Flight Plot

Page will automatically refresh every two minutes.


Map Options




Map Legend


Flown Route
Filed Route
Departure Airport
Arrival Airport
Navaid (VOR, NDB)
Fix

Horizontal Profiles

Position Reports

Time Latitude Longitude Heading Altitude Ground
Speed
01-Dec-19 21:32 34.210350 -119.076434 89 79ft 0kts
01-Dec-19 21:33 34.210350 -119.076434 89 79ft 0kts
01-Dec-19 21:34 34.210350 -119.076434 89 79ft 0kts
01-Dec-19 21:35 34.210350 -119.076433 89 79ft 0kts
01-Dec-19 21:36 34.210744 -119.076062 325 79ft 6kts
01-Dec-19 21:37 34.210908 -119.081171 271 76ft 17kts
01-Dec-19 21:38 34.210958 -119.087430 271 71ft 18kts
01-Dec-19 21:39 34.211798 -119.090328 279 69ft 6kts
01-Dec-19 21:40 34.211863 -119.097122 270 63ft 23kts
01-Dec-19 21:41 34.212648 -119.104028 283 60ft 16kts
01-Dec-19 21:42 34.212995 -119.104450 18 60ft 0kts
01-Dec-19 21:43 34.213203 -119.104320 31 60ft 8kts
01-Dec-19 21:44 34.213034 -119.089195 97 578ft 63kts
01-Dec-19 21:45 34.211411 -119.067326 88 1539ft 64kts
01-Dec-19 21:46 34.209924 -119.045487 101 2430ft 65kts
01-Dec-19 21:47 34.206721 -119.024211 96 3284ft 64kts
01-Dec-19 21:48 34.212020 -118.997567 96 3585ft 92kts
01-Dec-19 21:49 34.211647 -118.965286 93 3572ft 95kts
01-Dec-19 21:50 34.211698 -118.932144 93 3543ft 95kts
01-Dec-19 21:51 34.211672 -118.899800 93 3543ft 90kts
01-Dec-19 21:52 34.211668 -118.869176 94 3543ft 88kts
01-Dec-19 21:53 34.211656 -118.840358 93 3741ft 67kts
01-Dec-19 21:54 34.212451 -118.820168 92 4199ft 73kts
01-Dec-19 21:55 34.212725 -118.789579 93 4611ft 95kts
01-Dec-19 21:56 34.212740 -118.756843 93 5097ft 97kts
01-Dec-19 21:57 34.212626 -118.723659 93 5587ft 96kts
01-Dec-19 21:58 34.212464 -118.690988 94 6072ft 95kts
01-Dec-19 21:59 34.210335 -118.657283 93 6530ft 111kts
01-Dec-19 22:00 34.204846 -118.618699 94 7039ft 119kts
01-Dec-19 22:01 34.200199 -118.578792 94 7535ft 121kts
01-Dec-19 22:02 34.187727 -118.538745 134 7745ft 127kts
01-Dec-19 22:03 34.157589 -118.526281 210 6845ft 111kts
01-Dec-19 22:04 34.128270 -118.541657 197 5888ft 115kts
01-Dec-19 22:05 34.102672 -118.521912 144 5491ft 109kts
01-Dec-19 22:06 34.072719 -118.512028 158 5598ft 109kts
01-Dec-19 22:07 34.043739 -118.494253 152 5556ft 119kts
01-Dec-19 22:08 34.014363 -118.475346 165 5484ft 120kts
01-Dec-19 22:09 33.983470 -118.463390 153 5521ft 118kts
01-Dec-19 22:10 33.955145 -118.443160 152 5506ft 119kts
01-Dec-19 22:11 33.925566 -118.426878 144 5519ft 117kts
01-Dec-19 22:12 33.901560 -118.400248 139 5510ft 119kts
01-Dec-19 22:13 33.876346 -118.376628 147 5524ft 118kts
01-Dec-19 22:14 33.849403 -118.354054 145 5533ft 118kts
01-Dec-19 22:15 33.825177 -118.326046 141 5428ft 122kts
01-Dec-19 22:16 33.798773 -118.303361 146 5498ft 117kts
01-Dec-19 22:17 33.773866 -118.278133 126 5534ft 118kts
01-Dec-19 22:18 33.752725 -118.246742 111 5312ft 125kts
01-Dec-19 22:19 33.747099 -118.204080 89 5008ft 130kts
01-Dec-19 22:20 33.744891 -118.159749 92 4694ft 130kts
01-Dec-19 22:21 33.741281 -118.115737 92 4381ft 129kts
01-Dec-19 22:22 33.737754 -118.074454 93 4058ft 110kts
01-Dec-19 22:23 33.734549 -118.039855 93 3743ft 99kts
01-Dec-19 22:24 33.731350 -118.007387 93 3433ft 95kts
01-Dec-19 22:25 33.728254 -117.975959 90 3130ft 93kts
01-Dec-19 22:26 33.730606 -117.944776 75 2419ft 96kts
01-Dec-19 22:27 33.734912 -117.914511 102 1687ft 92kts
01-Dec-19 22:28 33.722085 -117.887847 109 1182ft 94kts
01-Dec-19 22:29 33.707468 -117.862253 130 873ft 81kts
01-Dec-19 22:30 33.691517 -117.858758 206 290ft 69kts
01-Dec-19 22:31 33.677325 -117.867783 205 60ft 27kts
01-Dec-19 22:32 33.675733 -117.869244 285 60ft 0kts
01-Dec-19 22:33 33.675989 -117.871179 211 60ft 0kts
01-Dec-19 22:34 33.675990 -117.871179 211 60ft 0kts

Navigation Log

Ident Type
Flight plan parsing failed, navigation log unavailable